createdAt,value
2022-09-24T00:01:31.397Z,22.10
2022-09-24T00:04:02.479Z,28.70
2022-09-24T00:06:30.412Z,22.47
2022-09-24T00:08:57.819Z,24.47
2022-09-24T00:11:26.554Z,24.57
2022-09-24T00:13:53.617Z,30.87
2022-09-24T00:16:22.005Z,25.20
2022-09-24T00:18:49.031Z,23.13
2022-09-24T00:21:15.935Z,22.23
2022-09-24T00:23:43.065Z,20.80
2022-09-24T00:26:29.919Z,26.23
2022-09-24T00:28:57.034Z,26.17
2022-09-24T00:31:24.517Z,22.70
2022-09-24T00:33:52.477Z,23.73
2022-09-24T00:36:20.235Z,24.00
2022-09-24T00:38:54.887Z,24.97
2022-09-24T00:41:23.658Z,24.17
2022-09-24T00:43:50.607Z,30.57
2022-09-24T00:46:35.698Z,24.13
2022-09-24T00:49:22.792Z,25.63
2022-09-24T00:51:51.566Z,25.47
2022-09-24T00:54:23.278Z,23.60
2022-09-24T00:56:51.272Z,24.27
2022-09-24T00:59:19.607Z,27.10
2022-09-24T01:01:47.209Z,25.57
2022-09-24T01:04:14.484Z,24.20
2022-09-24T01:06:41.489Z,18.53
2022-09-24T01:09:08.692Z,20.33
2022-09-24T01:12:01.993Z,25.73
2022-09-24T01:14:44.279Z,22.83
2022-09-24T01:17:13.906Z,25.93
2022-09-24T01:19:40.727Z,25.77
2022-09-24T01:22:16.079Z,23.33
2022-09-24T01:25:01.925Z,28.50
2022-09-24T01:27:28.997Z,27.10
2022-09-24T01:30:06.787Z,22.33
2022-09-24T01:32:34.657Z,26.77
2022-09-24T01:35:03.512Z,28.80
2022-09-24T01:37:34.161Z,22.53
2022-09-24T01:40:01.863Z,21.60
2022-09-24T01:42:30.501Z,30.80
2022-09-24T01:44:58.397Z,27.47
2022-09-24T01:47:35.122Z,25.23
2022-09-24T01:50:03.864Z,28.63
2022-09-24T01:52:34.535Z,24.00
2022-09-24T01:55:02.246Z,25.27
2022-09-24T01:57:39.282Z,27.10
2022-09-24T02:00:09.940Z,23.90
2022-09-24T02:02:52.227Z,25.90
2022-09-24T02:05:19.204Z,24.53
2022-09-24T02:07:50.919Z,21.27
2022-09-24T02:10:19.174Z,28.03
2022-09-24T02:12:47.474Z,27.70
2022-09-24T02:15:22.431Z,29.23
2022-09-24T02:17:53.615Z,27.67
2022-09-24T02:20:21.858Z,23.03
2022-09-24T02:22:49.842Z,29.27
2022-09-24T02:25:21.011Z,31.07
2022-09-24T02:27:47.963Z,28.57
2022-09-24T02:30:14.936Z,24.17
2022-09-24T02:32:42.281Z,28.53
2022-09-24T02:35:10.285Z,28.83
2022-09-24T02:37:38.450Z,29.03
2022-09-24T02:40:06.661Z,27.70
2022-09-24T02:42:33.599Z,25.80
2022-09-24T02:45:00.790Z,25.17
2022-09-24T02:47:27.751Z,30.93
2022-09-24T02:49:54.676Z,24.43
2022-09-24T02:52:22.621Z,28.00
2022-09-24T02:54:52.430Z,29.90
2022-09-24T02:57:19.631Z,30.47
2022-09-24T02:59:46.716Z,33.80
2022-09-24T03:02:13.820Z,30.70
2022-09-24T03:04:40.804Z,31.37
2022-09-24T03:07:07.641Z,36.20
2022-09-24T03:09:34.395Z,34.50
2022-09-24T03:12:01.631Z,35.17
2022-09-24T03:14:28.451Z,33.53
2022-09-24T03:16:55.238Z,31.43
2022-09-24T03:19:22.122Z,33.63
2022-09-24T03:21:48.881Z,36.73
2022-09-24T03:24:15.794Z,34.30
2022-09-24T03:26:42.981Z,37.43
2022-09-24T03:29:10.393Z,35.50
2022-09-24T03:31:37.324Z,33.40
2022-09-24T03:34:04.114Z,32.93
2022-09-24T03:36:31.054Z,33.00
2022-09-24T03:38:58.131Z,34.30
2022-09-24T03:41:26.387Z,36.10
2022-09-24T03:43:53.309Z,35.80
2022-09-24T03:46:20.163Z,36.43
2022-09-24T03:48:47.698Z,33.33
2022-09-24T03:51:15.953Z,36.43
2022-09-24T03:53:42.856Z,37.60
2022-09-24T03:56:09.918Z,35.60
2022-09-24T03:58:39.676Z,38.13
2022-09-24T04:01:07.209Z,40.00
2022-09-24T04:03:33.992Z,33.37
2022-09-24T04:06:00.849Z,35.80
2022-09-24T04:08:27.981Z,41.13
2022-09-24T04:10:55.824Z,35.57
2022-09-24T04:13:22.655Z,36.77
2022-09-24T04:15:50.505Z,38.53
2022-09-24T04:18:17.954Z,36.43
2022-09-24T04:20:45.518Z,47.60
2022-09-24T04:23:12.385Z,41.27
2022-09-24T04:25:40.780Z,41.30
2022-09-24T04:28:08.316Z,41.93
2022-09-24T04:30:35.948Z,42.23
2022-09-24T04:33:03.299Z,38.30
2022-09-24T04:35:30.996Z,36.83
2022-09-24T04:37:57.937Z,36.20
2022-09-24T04:40:25.115Z,39.30
2022-09-24T04:42:52.786Z,46.67
2022-09-24T04:45:20.388Z,46.37
2022-09-24T04:47:56.321Z,51.47
2022-09-24T04:50:23.962Z,47.03
2022-09-24T04:52:53.088Z,51.87
2022-09-24T04:55:20.982Z,58.50
2022-09-24T04:57:48.222Z,73.93
2022-09-24T05:00:17.731Z,107.67
2022-09-24T05:02:44.927Z,99.70
2022-09-24T05:05:12.483Z,79.33
2022-09-24T05:07:39.600Z,69.47
2022-09-24T05:10:06.947Z,52.83
2022-09-24T05:12:35.541Z,47.10
2022-09-24T05:15:02.494Z,44.60
2022-09-24T05:17:29.363Z,46.87
2022-09-24T05:19:58.038Z,40.23
2022-09-24T05:22:25.760Z,45.57
2022-09-24T05:24:52.657Z,46.90
2022-09-24T05:27:21.888Z,43.23
2022-09-24T05:29:49.124Z,49.47
2022-09-24T05:32:20.136Z,43.33
2022-09-24T05:34:47.443Z,44.17
2022-09-24T05:37:14.797Z,46.80
2022-09-24T05:39:41.858Z,44.37
2022-09-24T05:42:14.092Z,50.57
2022-09-24T05:44:41.254Z,42.50
2022-09-24T05:47:08.563Z,42.03
2022-09-24T05:49:35.753Z,37.63
2022-09-24T05:52:03.033Z,42.13
2022-09-24T05:54:30.291Z,46.50
2022-09-24T05:56:57.060Z,43.37
2022-09-24T05:59:25.192Z,39.60
2022-09-24T06:01:52.396Z,43.53
2022-09-24T06:04:19.394Z,44.03
2022-09-24T06:06:46.183Z,38.47
2022-09-24T06:09:13.159Z,40.33
2022-09-24T06:11:41.121Z,42.43
2022-09-24T06:14:08.906Z,38.50
2022-09-24T06:16:36.376Z,41.40
2022-09-24T06:19:03.771Z,43.77
2022-09-24T06:21:30.523Z,43.53
2022-09-24T06:23:57.308Z,45.10
2022-09-24T06:26:26.498Z,36.57
2022-09-24T06:28:53.285Z,40.63
2022-09-24T06:31:20.598Z,44.10
2022-09-24T06:33:47.822Z,42.90
2022-09-24T06:36:14.873Z,33.87
2022-09-24T06:38:42.051Z,40.93
2022-09-24T06:41:10.333Z,42.03
2022-09-24T06:43:37.202Z,38.40
2022-09-24T06:46:04.151Z,33.13
2022-09-24T06:48:31.975Z,29.57
2022-09-24T06:50:58.785Z,31.47
2022-09-24T06:53:25.729Z,32.40
2022-09-24T06:55:53.607Z,33.23
2022-09-24T06:58:21.125Z,29.63
2022-09-24T07:00:52.273Z,27.77
2022-09-24T07:03:19.368Z,28.10
2022-09-24T07:05:46.178Z,29.03
2022-09-24T07:08:13.041Z,27.40
2022-09-24T07:10:46.747Z,26.93
2022-09-24T07:13:14.204Z,31.60
2022-09-24T07:15:41.844Z,24.37
2022-09-24T07:18:08.977Z,22.43
2022-09-24T07:20:37.118Z,26.17
2022-09-24T07:23:04.774Z,23.37
2022-09-24T07:25:31.667Z,25.57
2022-09-24T07:28:09.372Z,26.17
2022-09-24T07:30:36.567Z,21.80
2022-09-24T07:33:03.423Z,22.47
2022-09-24T07:35:30.299Z,24.30
2022-09-24T07:38:07.227Z,21.27
2022-09-24T07:40:34.161Z,24.10
2022-09-24T07:43:01.052Z,28.37
2022-09-24T07:45:29.816Z,26.90
2022-09-24T07:48:01.495Z,27.23
2022-09-24T07:50:29.651Z,22.47
2022-09-24T07:52:57.061Z,25.43
2022-09-24T07:55:24.278Z,21.87
2022-09-24T07:57:52.099Z,27.97
2022-09-24T08:00:20.055Z,20.17
2022-09-24T08:02:47.861Z,20.30
2022-09-24T08:05:16.755Z,23.93
2022-09-24T08:07:43.894Z,20.80
2022-09-24T08:10:11.725Z,25.93
2022-09-24T08:12:38.633Z,20.77
2022-09-24T08:15:05.768Z,20.27
2022-09-24T08:17:33.016Z,21.87
2022-09-24T08:20:00.014Z,21.87
2022-09-24T08:22:26.855Z,20.73
2022-09-24T08:24:54.474Z,17.33
2022-09-24T08:27:21.256Z,19.13
2022-09-24T08:29:48.756Z,19.83
2022-09-24T08:32:15.810Z,18.77
2022-09-24T08:34:42.762Z,18.03
2022-09-24T08:37:09.857Z,20.23
2022-09-24T08:39:36.951Z,18.33
2022-09-24T08:42:10.798Z,19.23
2022-09-24T08:45:03.694Z,15.27
2022-09-24T08:47:45.913Z,16.63
2022-09-24T08:50:15.832Z,17.30
2022-09-24T08:52:42.676Z,17.30
2022-09-24T08:55:15.545Z,15.57
2022-09-24T08:57:51.149Z,15.00
2022-09-24T09:00:18.447Z,13.57
2022-09-24T09:03:04.182Z,11.27
2022-09-24T09:05:34.159Z,13.77
2022-09-24T09:08:02.947Z,13.90
2022-09-24T09:10:43.619Z,11.80
2022-09-24T09:13:14.184Z,12.47
2022-09-24T09:15:44.257Z,13.23
2022-09-24T09:18:15.367Z,12.30
2022-09-24T09:20:43.691Z,13.97
2022-09-24T09:23:16.356Z,11.07
2022-09-24T09:25:47.831Z,11.67
2022-09-24T09:28:15.796Z,13.03
2022-09-24T09:31:00.644Z,12.67
2022-09-24T09:33:30.729Z,12.50
2022-09-24T09:35:57.572Z,11.90
2022-09-24T09:38:44.632Z,9.33
2022-09-24T09:41:11.411Z,11.00
2022-09-24T09:43:38.734Z,17.03
2022-09-24T09:46:14.691Z,11.90
2022-09-24T09:48:50.409Z,8.77
2022-09-24T09:51:22.913Z,10.93
2022-09-24T09:53:56.297Z,10.80
2022-09-24T09:56:24.952Z,10.77
2022-09-24T09:58:55.947Z,9.90
2022-09-24T10:01:31.940Z,11.20
2022-09-24T10:04:03.296Z,11.47
2022-09-24T10:06:35.268Z,10.90
2022-09-24T10:09:16.307Z,12.00
2022-09-24T10:11:43.148Z,10.17
2022-09-24T10:14:11.561Z,10.27
2022-09-24T10:16:39.686Z,8.27
2022-09-24T10:19:23.778Z,13.57
2022-09-24T10:21:51.083Z,11.47
2022-09-24T10:24:20.555Z,12.30
2022-09-24T10:26:48.011Z,14.57
2022-09-24T10:29:35.938Z,12.10
2022-09-24T10:32:03.828Z,10.10
2022-09-24T10:34:32.174Z,11.03
2022-09-24T10:37:01.301Z,9.10
2022-09-24T10:39:28.532Z,9.37
2022-09-24T10:41:59.036Z,9.20
2022-09-24T10:44:30.206Z,6.60
2022-09-24T10:47:18.931Z,8.00
2022-09-24T10:50:04.448Z,8.07
2022-09-24T10:52:50.049Z,7.40
2022-09-24T10:55:32.461Z,11.07
2022-09-24T10:58:04.342Z,7.83
2022-09-24T11:00:44.441Z,7.67
2022-09-24T11:03:29.855Z,8.87
2022-09-24T11:06:23.122Z,7.60
2022-09-24T11:08:49.905Z,9.97
2022-09-24T11:11:35.472Z,10.93
2022-09-24T11:14:16.582Z,7.00
2022-09-24T11:16:49.167Z,8.70
2022-09-24T11:19:22.229Z,7.07
2022-09-24T11:22:04.527Z,6.47
2022-09-24T11:24:49.472Z,8.17
2022-09-24T11:27:28.927Z,6.53
2022-09-24T11:29:58.740Z,9.13
2022-09-24T11:32:25.604Z,7.00
2022-09-24T11:34:55.201Z,7.07
2022-09-24T11:37:38.155Z,9.63
2022-09-24T11:40:12.250Z,12.07
2022-09-24T11:42:58.110Z,10.97
2022-09-24T11:45:25.265Z,9.20
2022-09-24T11:48:15.389Z,9.27
2022-09-24T11:50:46.694Z,12.67
2022-09-24T11:53:20.010Z,8.57
2022-09-24T11:55:51.862Z,6.57
2022-09-24T11:58:18.732Z,9.47
2022-09-24T12:00:50.292Z,7.87
2022-09-24T12:03:25.707Z,8.97
2022-09-24T12:06:14.635Z,8.43
2022-09-24T12:08:48.824Z,8.43
2022-09-24T12:11:24.862Z,4.93
2022-09-24T12:14:09.813Z,5.53
2022-09-24T12:16:38.333Z,5.97
2022-09-24T12:19:12.608Z,10.83
2022-09-24T12:21:41.833Z,5.20
2022-09-24T12:24:27.544Z,6.73
2022-09-24T12:26:57.843Z,7.90
2022-09-24T12:29:46.456Z,6.47
2022-09-24T12:32:31.684Z,6.67
2022-09-24T12:34:58.921Z,8.43
2022-09-24T12:37:29.153Z,6.97
2022-09-24T12:40:14.805Z,7.17
2022-09-24T12:42:45.689Z,4.43
2022-09-24T12:45:22.530Z,8.87
2022-09-24T12:47:55.000Z,7.33
2022-09-24T12:50:24.094Z,8.00
2022-09-24T12:52:50.872Z,4.73
2022-09-24T12:55:31.321Z,7.47
2022-09-24T12:58:06.586Z,7.07
2022-09-24T13:00:39.862Z,6.93
2022-09-24T13:03:07.922Z,8.47
2022-09-24T13:05:40.968Z,7.47
2022-09-24T13:08:07.971Z,8.23
2022-09-24T13:10:36.695Z,7.53
2022-09-24T13:13:15.950Z,8.43
2022-09-24T13:15:43.077Z,9.60
2022-09-24T13:18:10.310Z,10.93
2022-09-24T13:20:38.551Z,10.63
2022-09-24T13:23:12.997Z,11.57
2022-09-24T13:25:39.914Z,11.93
2022-09-24T13:28:20.743Z,13.60
2022-09-24T13:30:51.076Z,10.23
2022-09-24T13:33:32.188Z,10.07
2022-09-24T13:36:13.749Z,10.07
2022-09-24T13:38:53.005Z,9.17
2022-09-24T13:41:23.523Z,12.23
2022-09-24T13:43:52.989Z,8.90
2022-09-24T13:46:21.056Z,8.47
2022-09-24T13:48:52.913Z,11.17
2022-09-24T13:51:22.984Z,7.37
2022-09-24T13:53:52.940Z,11.73
2022-09-24T13:56:20.291Z,8.53
2022-09-24T13:58:48.122Z,10.03
2022-09-24T14:01:19.689Z,8.97
2022-09-24T14:04:00.668Z,12.43
2022-09-24T14:06:38.104Z,13.17
2022-09-24T14:09:23.587Z,12.30
2022-09-24T14:11:51.134Z,11.17
2022-09-24T14:14:20.065Z,7.97
2022-09-24T14:16:47.271Z,9.33
2022-09-24T14:19:14.934Z,11.77
2022-09-24T14:21:45.395Z,8.97
2022-09-24T14:24:22.366Z,8.03
2022-09-24T14:26:49.191Z,8.67
2022-09-24T14:29:24.122Z,12.40
2022-09-24T14:31:53.284Z,10.20
2022-09-24T14:34:24.889Z,8.03
2022-09-24T14:36:52.493Z,10.67
2022-09-24T14:39:19.403Z,9.50
2022-09-24T14:41:46.571Z,12.70
2022-09-24T14:44:20.260Z,8.10
2022-09-24T14:46:56.114Z,14.07
2022-09-24T14:49:22.979Z,6.63
2022-09-24T14:52:00.142Z,8.27
2022-09-24T14:54:34.257Z,9.03
2022-09-24T14:57:11.078Z,7.23
2022-09-24T14:59:41.786Z,8.93
2022-09-24T15:02:38.150Z,7.13
2022-09-24T15:05:07.165Z,7.30
2022-09-24T15:07:35.129Z,8.63
2022-09-24T15:10:03.747Z,7.97
2022-09-24T15:12:32.450Z,8.83
2022-09-24T15:15:00.149Z,7.83
2022-09-24T15:17:32.611Z,8.03
2022-09-24T15:19:59.940Z,8.17
2022-09-24T15:22:28.144Z,6.77
2022-09-24T15:25:01.040Z,7.80
2022-09-24T15:27:29.926Z,8.27
2022-09-24T15:30:00.138Z,8.93
2022-09-24T15:32:28.148Z,7.60
2022-09-24T15:34:58.296Z,7.50
2022-09-24T15:37:26.639Z,6.83
2022-09-24T15:39:56.263Z,7.37
2022-09-24T15:42:24.339Z,7.83
2022-09-24T15:44:51.319Z,7.93
2022-09-24T15:47:18.683Z,11.43
2022-09-24T15:49:45.513Z,8.23
2022-09-24T15:52:12.306Z,9.40
2022-09-24T15:54:39.136Z,8.47
2022-09-24T15:57:05.988Z,9.27
2022-09-24T15:59:32.967Z,6.83
2022-09-24T16:02:03.861Z,8.10
2022-09-24T16:04:30.783Z,8.10
2022-09-24T16:06:57.597Z,6.77
2022-09-24T16:09:24.429Z,6.97
2022-09-24T16:11:51.284Z,6.00
2022-09-24T16:14:18.130Z,8.03
2022-09-24T16:16:44.975Z,6.50
2022-09-24T16:19:12.699Z,8.60
2022-09-24T16:21:39.666Z,8.43
2022-09-24T16:24:06.605Z,7.17
2022-09-24T16:26:34.580Z,6.73
2022-09-24T16:29:05.868Z,7.27
2022-09-24T16:31:34.312Z,10.23
2022-09-24T16:34:01.150Z,18.40
2022-09-24T16:36:28.135Z,15.97
2022-09-24T16:38:54.944Z,14.60
2022-09-24T16:41:21.763Z,18.97
2022-09-24T16:43:48.991Z,15.33
2022-09-24T16:46:20.447Z,19.03
2022-09-24T16:48:49.330Z,21.70
2022-09-24T16:51:17.478Z,20.80
2022-09-24T16:53:48.515Z,22.60
2022-09-24T16:56:16.677Z,23.77
2022-09-24T16:58:44.428Z,19.20
2022-09-24T17:01:12.397Z,20.93
2022-09-24T17:03:39.612Z,28.27
2022-09-24T17:06:07.085Z,24.63
2022-09-24T17:08:53.549Z,20.87
2022-09-24T17:11:21.184Z,23.90
2022-09-24T17:13:48.006Z,18.67
2022-09-24T17:16:15.572Z,22.93
2022-09-24T17:18:42.586Z,27.67
2022-09-24T17:21:11.711Z,26.57
2022-09-24T17:23:39.087Z,22.30
2022-09-24T17:26:11.772Z,32.70
2022-09-24T17:28:40.599Z,31.00
2022-09-24T17:31:08.079Z,37.10
2022-09-24T17:33:44.105Z,32.90
2022-09-24T17:36:12.735Z,30.20
2022-09-24T17:38:39.816Z,35.17
2022-09-24T17:41:07.862Z,62.07
2022-09-24T17:43:35.434Z,33.30
2022-09-24T17:46:28.580Z,31.23
2022-09-24T17:48:56.534Z,40.40
2022-09-24T17:51:25.004Z,33.50
2022-09-24T17:53:53.261Z,48.77
2022-09-24T17:56:21.332Z,41.30
2022-09-24T17:58:48.232Z,29.73
2022-09-24T18:01:15.033Z,31.67
2022-09-24T18:03:41.924Z,33.07
2022-09-24T18:06:10.323Z,34.97
2022-09-24T18:08:37.903Z,29.27
2022-09-24T18:11:09.570Z,38.53
2022-09-24T18:13:36.807Z,36.60
2022-09-24T18:16:07.605Z,40.67
2022-09-24T18:18:34.700Z,43.03
2022-09-24T18:21:05.685Z,46.23
2022-09-24T18:23:34.835Z,67.00
2022-09-24T18:26:10.638Z,54.70
2022-09-24T18:28:38.761Z,37.37
2022-09-24T18:31:06.120Z,31.23
2022-09-24T18:33:33.552Z,38.23
2022-09-24T18:36:04.321Z,42.67
2022-09-24T18:38:33.836Z,34.67
2022-09-24T18:41:01.868Z,32.23
2022-09-24T18:43:28.753Z,29.63
2022-09-24T18:45:55.573Z,34.17
2022-09-24T18:48:22.498Z,30.97
2022-09-24T18:50:49.291Z,38.07
2022-09-24T18:53:16.525Z,41.30
2022-09-24T18:55:43.593Z,42.53
2022-09-24T18:58:13.538Z,57.50
2022-09-24T19:00:54.292Z,52.63
2022-09-24T19:03:22.238Z,72.33
2022-09-24T19:05:51.577Z,66.40
2022-09-24T19:08:22.317Z,44.63
2022-09-24T19:10:50.047Z,48.87
2022-09-24T19:13:17.069Z,46.60
2022-09-24T19:15:44.032Z,47.83
2022-09-24T19:18:12.613Z,49.60
2022-09-24T19:20:40.165Z,48.90
2022-09-24T19:23:08.309Z,52.93
2022-09-24T19:25:35.977Z,44.03
2022-09-24T19:28:04.486Z,47.13
2022-09-24T19:30:36.994Z,49.23
2022-09-24T19:33:03.907Z,44.80
2022-09-24T19:35:31.060Z,58.00
2022-09-24T19:37:57.972Z,58.83
2022-09-24T19:40:24.864Z,58.50
2022-09-24T19:42:52.032Z,60.77
2022-09-24T19:45:18.817Z,56.70
2022-09-24T19:47:45.743Z,44.77
2022-09-24T19:50:17.324Z,43.33
2022-09-24T19:52:44.852Z,41.53
2022-09-24T19:55:12.114Z,38.00
2022-09-24T19:57:39.204Z,43.27
2022-09-24T20:00:06.678Z,46.77
2022-09-24T20:02:34.163Z,55.23
2022-09-24T20:05:00.998Z,54.57
2022-09-24T20:07:27.759Z,53.30
2022-09-24T20:09:54.592Z,44.50
2022-09-24T20:12:21.992Z,40.37
2022-09-24T20:14:48.754Z,34.67
2022-09-24T20:17:16.126Z,44.00
2022-09-24T20:19:43.048Z,41.60
2022-09-24T20:22:12.821Z,46.93
2022-09-24T20:24:43.488Z,40.00
2022-09-24T20:27:30.422Z,37.07
2022-09-24T20:29:57.777Z,29.93
2022-09-24T20:32:25.151Z,37.27
2022-09-24T20:34:52.487Z,37.97
2022-09-24T20:37:19.443Z,35.83
2022-09-24T20:39:46.270Z,41.80
2022-09-24T20:42:13.894Z,38.63
2022-09-24T20:44:40.862Z,34.63
2022-09-24T20:47:07.662Z,30.43
2022-09-24T20:49:34.945Z,36.30
2022-09-24T20:52:03.405Z,33.60
2022-09-24T20:54:30.326Z,38.10
2022-09-24T20:56:57.459Z,49.63
2022-09-24T20:59:26.028Z,40.03
2022-09-24T21:01:53.313Z,38.17
2022-09-24T21:04:20.423Z,41.63
2022-09-24T21:06:47.489Z,61.93
2022-09-24T21:09:14.695Z,36.73
2022-09-24T21:11:42.259Z,31.27
2022-09-24T21:14:10.848Z,29.57
2022-09-24T21:16:37.937Z,29.07
2022-09-24T21:19:05.844Z,36.83
2022-09-24T21:21:34.846Z,34.80
2022-09-24T21:24:02.351Z,29.00
2022-09-24T21:26:34.272Z,30.10
2022-09-24T21:29:03.175Z,30.77
2022-09-24T21:31:31.825Z,31.30
2022-09-24T21:33:58.725Z,33.90
2022-09-24T21:36:26.768Z,32.37
2022-09-24T21:38:56.438Z,30.23
2022-09-24T21:41:24.291Z,34.60
2022-09-24T21:43:51.044Z,35.93
2022-09-24T21:46:18.400Z,32.90
2022-09-24T21:48:45.275Z,31.07
2022-09-24T21:51:22.429Z,30.90
2022-09-24T21:53:49.371Z,33.60
2022-09-24T21:56:18.962Z,37.83
2022-09-24T21:58:46.586Z,36.73
2022-09-24T22:01:17.986Z,31.43
2022-09-24T22:03:48.031Z,30.57
2022-09-24T22:06:15.416Z,35.60
2022-09-24T22:08:43.281Z,35.47
2022-09-24T22:11:11.400Z,30.20
2022-09-24T22:13:38.921Z,33.20
2022-09-24T22:16:07.803Z,29.97
2022-09-24T22:18:34.841Z,35.10
2022-09-24T22:21:06.479Z,29.30
2022-09-24T22:23:33.463Z,30.10
2022-09-24T22:26:00.482Z,31.30
2022-09-24T22:28:27.681Z,33.57
2022-09-24T22:30:57.153Z,31.90
2022-09-24T22:33:43.490Z,22.57
2022-09-24T22:36:10.401Z,23.77
2022-09-24T22:38:37.254Z,33.60
2022-09-24T22:41:05.028Z,27.20
2022-09-24T22:43:32.429Z,27.27
2022-09-24T22:46:00.025Z,28.30
2022-09-24T22:48:27.205Z,32.47
2022-09-24T22:50:54.110Z,29.47
2022-09-24T22:53:21.360Z,31.43
2022-09-24T22:55:52.509Z,40.67
2022-09-24T22:58:19.905Z,41.97
2022-09-24T23:00:46.708Z,46.60
2022-09-24T23:03:13.494Z,32.00
2022-09-24T23:05:40.390Z,24.13
2022-09-24T23:08:07.175Z,27.83
2022-09-24T23:10:34.116Z,32.60
2022-09-24T23:13:00.868Z,31.33
2022-09-24T23:15:27.895Z,39.00
2022-09-24T23:17:55.210Z,43.33
2022-09-24T23:20:22.853Z,48.00
2022-09-24T23:22:49.903Z,52.97
2022-09-24T23:25:17.680Z,44.70
2022-09-24T23:27:44.506Z,51.97
2022-09-24T23:30:11.450Z,61.37
2022-09-24T23:32:38.373Z,44.17
2022-09-24T23:35:05.435Z,46.07
2022-09-24T23:37:32.176Z,41.07
2022-09-24T23:39:59.950Z,30.67
2022-09-24T23:42:27.313Z,32.97
2022-09-24T23:44:54.199Z,38.70
2022-09-24T23:47:20.999Z,29.53
2022-09-24T23:49:47.850Z,30.37
2022-09-24T23:52:14.584Z,32.83
2022-09-24T23:54:41.800Z,35.07
2022-09-24T23:57:09.452Z,36.70
2022-09-24T23:59:36.282Z,34.40
